Vista (821, 693) Station Data

Red Flag Warning: No
Fire Weather Zone: 243
SDGE Region: North Coast
Lat/Lon: 33.205/-117.254

Observations

Time Wind Speed/Gust Temp(F) RH Fuel Moist Fuel Temp(F) Dewpt(F) Tmax(F) Tmin(F) Accum Precip 10-min Precip SL Press(mb)
2/27 11:40pm 259 2 G 5 52° 96% - - 51° 57.2° 46.7° - - -
2/27 11:20pm 295 5 G 10 52° 96% - - 51° 57.2° 46.7° - - -
2/27 11:10pm 275 4 G 12 52° 96% - - 51° 57.2° 46.7° - - -
2/27 11:00pm 248 3 G 8 52° 96% - - 51° 57.2° 46.7° - - -
2/27 10:50pm 245 3 G 10 52° 96% - - 51° 57.2° 46.7° - - -
2/27 10:40pm 232 3 G 12 53° 96% - - 52° 57.2° 46.7° - - -
2/27 10:30pm 217 1 G 4 53° 96% - - 52° 57.2° 46.7° - - -
2/27 10:20pm 211 2 G 3 53° 96% - - 52° 57.2° 46.7° - - -
2/27 10:10pm 213 2 G 4 53° 96% - - 52° 57.2° 46.7° - - -
2/27 10:00pm 256 1 G 3 53° 96% - - 52° 57.2° 46.7° - - -
2/27 9:50pm 273 1 G 2 53° 96% - - 52° 57.2° 46.7° - - -
2/27 9:40pm 206 0 G 2 53° 96% - - 51° 57.2° 46.7° - - -
2/27 9:30pm 268 1 G 3 53° 96% - - 52° 57.2° 46.7° - - -
2/27 9:20pm 327 2 G 5 53° 96% - - 52° 57.2° 46.7° - - -
2/27 9:10pm 303 2 G 4 53° 96% - - 52° 57.2° 46.7° - - -
2/27 9:00pm 299 3 G 4 53° 96% - - 52° 57.2° 46.7° - - -
2/27 8:50pm 279 2 G 5 53° 96% - - 52° 57.2° 46.7° - - -
2/27 8:40pm 298 3 G 5 53° 96% - - 52° 57.2° 46.7° - - -
2/27 8:30pm 316 3 G 5 53° 96% - - 52° 57.2° 46.7° - - -
2/27 8:20pm 298 1 G 3 53° 96% - - 52° 57.2° 46.7° - - -
2/27 8:10pm 217 0 G 1 53° 96% - - 52° 57.2° 46.7° - - -
2/27 8:00pm 199 0 G 1 53° 96% - - 52° 57.2° 46.7° - - -
2/27 7:50pm 147 0 G 1 53° 96% - - 52° 57.2° 46.7° - - -
2/27 7:40pm 259 0 G 3 53° 96% - - 52° 57.2° 46.7° - - -
2/27 7:30pm 313 1 G 3 53° 96% - - 52° 57.2° 46.7° - - -
2/27 7:20pm 299 2 G 5 53° 96% - - 52° 57.2° 46.7° - - -
2/27 7:10pm 288 3 G 7 53° 96% - - 52° 57.2° 46.7° - - -
2/27 7:00pm 274 2 G 5 54° 96% - - 52° 57.2° 46.7° - - -
2/27 6:50pm 266 1 G 3 54° 96% - - 53° 57.2° 46.7° - - -
2/27 6:40pm 282 2 G 4 54° 96% - - 53° 57.2° 46.7° - - -
2/27 6:30pm 274 2 G 4 54° 95% - - 53° 57.2° 46.7° - - -
2/27 6:20pm 246 3 G 6 54° 95% - - 53° 57.2° 46.7° - - -
2/27 6:10pm 221 8 G 18 55° 96% - - 54° 57.2° 46.7° - - -
2/27 6:00pm 217 6 G 15 55° 95% - - 53° 57.2° 46.7° - - -
2/27 5:50pm 231 4 G 8 54° 95% - - 53° 57.2° 46.7° - - -
2/27 5:40pm 247 4 G 11 55° 95% - - 53° 57.2° 46.7° - - -
2/27 5:30pm 240 5 G 12 55° 95% - - 54° 57.2° 46.7° - - -
2/27 5:20pm 216 8 G 18 56° 95% - - 55° 57.2° 46.7° - - -
2/27 5:10pm 211 8 G 16 56° 95% - - 55° 57.2° 46.7° - - -
2/27 5:00pm 210 8 G 19 56° 95% - - 55° 57.2° 46.7° - - -
2/27 4:50pm 208 9 G 21 56° 95% - - 55° 57.2° 46.7° - - -
2/27 4:40pm 214 9 G 17 56° 95% - - 55° 57.2° 46.7° - - -
2/27 4:30pm 215 6 G 10 56° 95% - - 55° 57.2° 46.7° - - -
2/27 4:20pm 213 8 G 16 56° 94% - - 54° 57.2° 46.7° - - -
2/27 4:10pm 211 9 G 17 56° 94% - - 54° 57.2° 46.7° - - -
2/27 4:00pm 205 8 G 20 56° 95% - - 54° 57.2° 46.7° - - -
2/27 3:50pm 207 10 G 19 56° 95% - - 54° 57.2° 46.7° - - -
2/27 3:40pm 205 8 G 16 56° 95% - - 54° 57.2° 46.7° - - -
2/27 3:30pm 205 10 G 19 56° 95% - - 55° 57.2° 46.7° - - -
2/27 3:20pm 203 9 G 20 56° 95% - - 55° 57.2° 46.7° - - -
2/27 3:10pm 196 9 G 18 56° 94% - - 55° 57.2° 46.7° - - -
2/27 3:00pm 195 11 G 23 56° 94% - - 55° 57.2° 46.7° - - -
2/27 2:50pm 198 12 G 27 56° 95% - - 55° 57.2° 46.7° - - -
2/27 2:40pm 206 11 G 25 56° 95% - - 55° 57.2° 46.7° - - -
2/27 2:30pm 197 12 G 23 56° 95% - - 55° 57.2° 46.7° - - -
2/27 2:20pm 193 12 G 21 57° 95% - - 55° 57.2° 46.7° - - -
2/27 2:10pm 197 14 G 25 56° 95% - - 55° 57.2° 46.7° - - -
2/27 2:00pm 195 14 G 25 56° 95% - - 55° 57.2° 46.7° - - -
2/27 1:50pm 192 10 G 21 56° 95% - - 55° 57.2° 46.7° - - -
2/27 1:40pm 196 10 G 20 57° 95% - - 55° 57.2° 46.7° - - -
2/27 1:30pm 201 11 G 23 57° 95% - - 55° 57.2° 46.7° - - -
2/27 1:20pm 191 11 G 23 57° 95% - - 55° 57.2° 46.7° - - -
2/27 1:10pm 193 10 G 17 57° 95% - - 55° 57.2° 46.7° - - -
2/27 1:00pm 196 10 G 18 57° 95% - - 55° 57.2° 46.7° - - -
2/27 12:50pm 198 10 G 20 57° 95% - - 55° 57.2° 46.7° - - -
2/27 12:40pm 202 10 G 19 56° 95% - - 55° 57.2° 46.7° - - -
2/27 12:30pm 189 10 G 18 56° 95% - - 55° 57.2° 46.7° - - -
2/27 12:20pm 194 11 G 21 56° 95% - - 55° 57.2° 46.7° - - -
2/27 12:10pm 192 9 G 17 56° 95% - - 55° 57.2° 46.7° - - -
2/27 12:00pm 185 8 G 17 55° 95% - - 54° 57.2° 46.7° - - -
2/27 11:50am 178 6 G 13 56° 95% - - 54° 57.2° 46.7° - - -
2/27 11:40am 184 9 G 15 56° 95% - - 54° 57.2° 46.7° - - -
2/27 11:30am 175 9 G 16 56° 95% - - 54° 57.2° 46.7° - - -
2/27 11:20am 189 6 G 11 56° 94% - - 55° 57.2° 46.7° - - -
2/27 11:10am 206 7 G 14 57° 94% - - 55° 57.2° 46.7° - - -
2/27 11:00am 196 8 G 15 57° 94% - - 55° 57.1° 46.7° - - -
2/27 10:50am 178 7 G 14 57° 95% - - 55° 57.1° 46.7° - - -
2/27 10:40am 189 9 G 18 56° 95% - - 55° 56.9° 46.7° - - -
2/27 10:30am 190 9 G 16 56° 95% - - 55° 56.9° 46.7° - - -
2/27 10:20am 197 9 G 16 56° 96% - - 55° 56.9° 46.7° - - -
2/27 10:10am 188 9 G 19 56° 96% - - 55° 56.8° 46.7° - - -
2/27 10:00am 187 9 G 18 56° 96% - - 55° 56.8° 46.7° - - -
2/27 9:50am 188 9 G 17 56° 97% - - 55° 56.8° 46.7° - - -
2/27 9:40am 196 6 G 15 56° 97% - - 55° 56.8° 46.7° - - -
2/27 9:30am 202 8 G 17 56° 97% - - 55° 56.8° 46.7° - - -
2/27 9:20am 193 8 G 16 56° 97% - - 55° 56.8° 46.7° - - -
2/27 9:10am 196 6 G 14 55° 97% - - 55° 56.4° 46.7° - - -
2/27 9:00am 25 1 G 7 52° 97% - - 51° 53.4° 46.7° - - -
2/27 8:50am 259 1 G 6 51° 97% - - 50° 52.3° 46.7° - - -
2/27 8:40am 339 1 G 4 50° 97% - - 49° 50.9° 46.7° - - -
2/27 8:30am 11 1 G 3 50° 97% - - 49° 50.5° 46.7° - - -
2/27 8:20am 358 1 G 3 50° 97% - - 49° 50.3° 46.7° - - -
2/27 8:10am 41 1 G 3 49° 97% - - 48° 49.9° 46.7° - - -
2/27 8:00am 35 2 G 4 49° 96% - - 48° 49.6° 46.7° - - -
2/27 7:50am 30 2 G 5 49° 96% - - 48° 49.4° 46.7° - - -
2/27 7:40am 12 2 G 7 49° 96% - - 48° 49.4° 46.7° - - -
2/27 7:30am 338 3 G 7 49° 96% - - 48° 49.4° 46.7° - - -
2/27 7:20am 23 3 G 6 48° 96% - - 47° 49.4° 46.7° - - -
2/27 7:10am 28 4 G 8 48° 96% - - 47° 49.4° 46.7° - - -
2/27 7:00am 22 2 G 7 48° 96% - - 47° 49.4° 46.7° - - -
2/27 6:50am 20 3 G 8 48° 96% - - 47° 49.4° 46.7° - - -
2/27 6:40am 9 4 G 8 48° 96% - - 47° 49.4° 46.7° - - -
2/27 6:30am 11 3 G 7 48° 96% - - 47° 49.4° 46.7° - - -
2/27 6:20am 10 3 G 5 48° 96% - - 47° 49.4° 46.7° - - -
2/27 6:10am 7 3 G 6 48° 96% - - 47° 49.4° 46.7° - - -
2/27 6:00am 8 3 G 7 48° 96% - - 47° 49.4° 46.7° - - -
2/27 5:50am 16 2 G 5 48° 96% - - 47° 49.4° 46.7° - - -
2/27 5:40am 17 2 G 5 48° 96% - - 47° 49.4° 46.7° - - -
2/27 5:30am 24 3 G 6 48° 96% - - 47° 49.4° 46.7° - - -
2/27 5:20am 27 3 G 6 47° 96% - - 46° 49.4° 46.7° - - -
2/27 5:10am 33 3 G 8 47° 96% - - 46° 49.4° 46.7° - - -
2/27 5:00am 26 3 G 7 47° 96% - - 46° 49.4° 46.7° - - -
2/27 4:50am 18 3 G 7 47° 96% - - 46° 49.4° 46.7° - - -
2/27 4:40am 20 3 G 7 47° 96% - - 46° 49.4° 46.7° - - -
2/27 4:30am 23 3 G 6 47° 96% - - 46° 49.4° 46.7° - - -
2/27 4:20am 16 3 G 8 47° 95% - - 46° 49.4° 46.7° - - -
2/27 4:10am 22 3 G 7 47° 95% - - 46° 49.4° 46.7° - - -
2/27 4:00am 17 3 G 7 47° 95% - - 46° 49.4° 46.7° - - -
2/27 3:50am 30 3 G 6 47° 95% - - 46° 49.4° 46.7° - - -
2/27 3:40am 21 4 G 7 47° 95% - - 46° 49.4° 46.7° - - -
2/27 3:30am 17 3 G 7 47° 95% - - 46° 49.4° 46.7° - - -
2/27 3:20am 23 3 G 7 47° 95% - - 46° 49.4° 46.7° - - -
2/27 3:10am 18 2 G 4 47° 94% - - 46° 49.4° 46.7° - - -
2/27 3:00am 16 1 G 3 48° 94% - - 46° 49.4° 46.7° - - -
2/27 2:50am 8 1 G 4 48° 94% - - 46° 49.4° 46.7° - - -
2/27 2:40am 4 1 G 3 48° 93% - - 46° 49.4° 46.7° - - -
2/27 2:30am 360 1 G 3 48° 93% - - 46° 49.4° 46.7° - - -
2/27 2:20am 13 1 G 4 48° 92% - - 46° 49.4° 46.7° - - -
2/27 2:10am 47 1 G 2 48° 92% - - 46° 49.4° 46.7° - - -
2/27 2:00am 73 1 G 3 48° 90% - - 46° 49.4° 46.7° - - -
2/27 1:50am 99 1 G 2 49° 88% - - 45° 49.4° 46.7° - - -
2/27 1:40am 137 1 G 2 49° 85% - - 45° 49.4° 46.7° - - -
2/27 1:30am 38 0 G 1 49° 85% - - 44° 49.3° 46.7° - - -
2/27 1:20am 1 1 G 1 49° 84% - - 44° 49.3° 46.7° - - -
2/27 1:10am 3 0 G 1 49° 82% - - 44° 49.3° 46.7° - - -
2/27 1:00am 20 0 G 1 49° 82% - - 44° 49.3° 46.7° - - -
2/27 12:50am 110 0 G 2 49° 82% - - 43° 49.3° 46.7° - - -
2/27 12:40am 121 0 G 1 48° 85% - - 43° 48.5° 46.7° - - -
2/27 12:30am 0 0 G 0 47° 87% - - 44° 48° 46.7° - - -
2/27 12:20am 0 0 G 0 47° 87% - - 44° 47.9° 46.7° - - -
2/27 12:10am 271 0 G 1 47° 86% - - 43° 47.9° 46.7° - - -
2/27 12:00am 0 0 G 0 47° 85% - - 43° 57.6° 46.9° - - -
2/26 11:50pm 81 0 G 1 48° 84% - - 43° 57.6° 47.2° - - -
2/26 11:40pm 89 1 G 2 48° 84% - - 43° 57.6° 47.2° - - -
2/26 11:30pm 87 1 G 1 48° 85% - - 44° 57.6° 47.5° - - -
2/26 11:20pm 0 0 G 0 48° 85% - - 43° 57.6° 47.6° - - -
2/26 11:10pm 30 0 G 1 48° 84% - - 43° 57.6° 47.7° - - -
2/26 11:00pm 96 0 G 1 49° 82% - - 43° 57.6° 48.1° - - -
2/26 10:50pm 148 0 G 1 49° 82% - - 43° 57.6° 48.4° - - -
2/26 10:40pm 143 0 G 1 49° 81% - - 43° 57.6° 48.6° - - -
2/26 10:30pm 134 1 G 2 49° 80% - - 44° 57.6° 48.9° - - -
2/26 10:20pm 129 1 G 2 50° 79% - - 44° 57.6° 48.9° - - -
2/26 10:10pm 118 1 G 3 50° 79% - - 44° 57.6° 48.9° - - -
2/26 10:00pm 131 1 G 3 51° 78% - - 44° 57.6° 48.9° - - -
2/26 9:50pm 145 1 G 3 51° 78% - - 44° 57.6° 48.9° - - -
2/26 9:40pm 154 1 G 2 51° 78% - - 45° 57.6° 48.9° - - -
2/26 9:30pm 148 1 G 2 51° 80% - - 45° 57.6° 48.9° - - -
2/26 9:20pm 0 0 G 0 51° 81% - - 46° 57.6° 48.9° - - -
2/26 9:10pm 19 0 G 1 51° 81% - - 46° 57.6° 48.9° - - -
2/26 9:00pm 119 1 G 1 52° 81% - - 46° 57.6° 48.9° - - -
2/26 8:50pm 122 1 G 2 52° 82% - - 46° 57.6° 48.9° - - -
2/26 8:40pm 121 1 G 2 51° 82% - - 46° 57.6° 48.9° - - -
2/26 8:30pm 130 1 G 3 51° 84% - - 47° 57.6° 48.9° - - -
2/26 8:20pm 123 1 G 2 51° 86% - - 47° 57.6° 48.9° - - -
2/26 8:10pm 114 1 G 1 51° 85% - - 47° 57.6° 48.9° - - -
2/26 8:00pm 116 0 G 1 51° 85% - - 47° 57.6° 48.9° - - -
2/26 7:50pm 97 1 G 2 51° 84% - - 47° 57.6° 48.9° - - -
2/26 7:40pm 137 0 G 1 51° 84% - - 46° 57.6° 48.9° - - -
2/26 7:30pm 169 0 G 1 51° 85% - - 47° 57.6° 48.9° - - -
2/26 7:20pm 129 0 G 0 51° 85% - - 47° 57.6° 48.9° - - -
2/26 7:10pm 92 0 G 1 51° 84% - - 47° 57.6° 48.9° - - -
2/26 7:00pm 136 0 G 1 52° 81% - - 46° 57.6° 48.9° - - -
2/26 6:50pm 172 2 G 3 52° 79% - - 46° 57.6° 48.9° - - -
2/26 6:40pm 187 2 G 4 52° 79% - - 46° 57.6° 48.9° - - -
2/26 6:30pm 187 2 G 4 52° 78% - - 46° 57.6° 48.9° - - -
2/26 6:20pm 193 3 G 5 52° 77% - - 45° 57.6° 48.9° - - -
2/26 6:10pm 196 2 G 4 52° 77% - - 45° 57.6° 48.9° - - -
2/26 6:00pm 201 2 G 5 53° 76% - - 45° 57.6° 48.9° - - -
2/26 5:50pm 218 3 G 6 53° 75% - - 45° 57.6° 48.9° - - -
2/26 5:40pm 216 4 G 6 53° 75% - - 45° 57.6° 48.9° - - -
2/26 5:30pm 215 3 G 7 54° 74% - - 46° 57.6° 48.9° - - -
2/26 5:20pm 209 4 G 6 54° 72% - - 45° 57.6° 48.9° - - -
2/26 5:10pm 227 3 G 7 54° 73% - - 45° 57.6° 48.9° - - -
2/26 5:00pm 241 3 G 7 54° 73% - - 46° 57.6° 48.9° - - -